Time;durP1;ratioP1;P1;durP2;ratioP2;P2;SDS_P1;SDS_P2;PMS_P1;PMS_P2;Temp;Humidity;BMP_temperature;BMP_pressure;BME280_temperature;BME280_humidity;BME280_pressure;Samples;Min_cycle;Max_cycle;Signal;HPM_P1;HPM_P2
2021/06/26 00:01:46;;;;;;;;;1.67;1.67;;;;;27.05;44.08;101584.69;5064553;27;45158;-71
2021/06/26 00:04:13;;;;;;;;;0.33;0.33;;;;;27.14;44.43;101589.91;5064837;27;45405;-70
2021/06/26 00:06:38;;;;;;;;;2.67;2.67;;;;;27.13;44.59;101588.25;5072297;27;45421;-72
2021/06/26 00:09:04;;;;;;;;;1.00;0.67;;;;;27.20;44.22;101601.63;5062624;27;45481;-71
2021/06/26 00:11:29;;;;;;;;;2.50;2.00;;;;;27.20;44.58;101597.13;5073736;27;45489;-71
2021/06/26 00:13:55;;;;;;;;;1.67;1.00;;;;;27.20;44.55;101589.13;5077414;27;46506;-71
2021/06/26 00:16:21;;;;;;;;;1.00;1.00;;;;;27.19;44.48;101595.50;5071608;27;45366;-73
2021/06/26 00:18:46;;;;;;;;;1.00;1.00;;;;;27.17;44.26;101589.50;5063241;27;45466;-72
2021/06/26 00:21:12;;;;;;;;;3.00;1.67;;;;;27.09;44.54;101579.78;5071784;27;45367;-77
2021/06/26 00:23:37;;;;;;;;;3.00;1.00;;;;;27.14;44.25;101584.56;5061272;28;46085;-74
2021/06/26 00:26:03;;;;;;;;;1.67;1.33;;;;;27.12;44.08;101586.56;5073942;28;45578;-74
2021/06/26 00:28:28;;;;;;;;;1.33;1.33;;;;;27.05;43.67;101571.34;5074416;27;45413;-75
2021/06/26 00:30:54;;;;;;;;;2.00;2.00;;;;;27.15;43.63;101589.72;5088590;27;45476;-74
2021/06/26 00:33:20;;;;;;;;;0.00;0.00;;;;;27.14;43.53;101582.72;5068860;28;46459;-74
2021/06/26 00:35:46;;;;;;;;;3.00;3.00;;;;;27.14;43.64;101580.03;5068321;28;45399;-74
2021/06/26 00:38:12;;;;;;;;;1.00;1.00;;;;;27.16;43.97;101586.03;5084466;27;45361;-74
2021/06/26 00:40:37;;;;;;;;;1.00;1.00;;;;;27.10;43.40;101577.94;5069600;28;45433;-75
2021/06/26 00:43:03;;;;;;;;;2.00;2.00;;;;;27.12;43.56;101576.72;5068658;28;45989;-74
2021/06/26 00:45:28;;;;;;;;;0.67;0.67;;;;;27.05;43.58;101571.34;5060266;28;45403;-74
2021/06/26 00:47:54;;;;;;;;;1.33;1.00;;;;;27.06;43.45;101566.84;5061534;28;45895;-74
2021/06/26 00:50:25;;;;;;;;;1.00;1.00;;;;;27.05;43.65;101571.34;5061526;28;45338;-74
2021/06/26 00:52:51;;;;;;;;;1.00;1.00;;;;;27.09;43.52;101576.31;5061034;28;45339;-74
2021/06/26 00:55:18;;;;;;;;;1.00;1.00;;;;;27.04;43.74;101580.38;5061324;28;45433;-74
2021/06/26 00:57:45;;;;;;;;;2.00;1.50;;;;;27.04;43.55;101575.03;5065765;28;45430;-74
2021/06/26 01:00:12;;;;;;;;;2.33;1.00;;;;;26.94;43.81;101559.38;5059633;28;45728;-74
2021/06/26 01:02:38;;;;;;;;;1.00;1.00;;;;;27.01;43.78;101564.72;5060292;28;45481;-73
2021/06/26 01:05:04;;;;;;;;;1.67;1.67;;;;;26.94;43.44;101547.84;5061003;28;45432;-74
2021/06/26 01:07:29;;;;;;;;;0.67;0.67;;;;;27.11;43.55;101574.25;5059479;28;45450;-75
2021/06/26 01:09:55;;;;;;;;;3.00;1.67;;;;;27.00;43.50;101557.75;5060791;28;45162;-74
2021/06/26 01:12:20;;;;;;;;;2.25;1.00;;;;;26.99;43.72;101553.44;5076918;28;46335;-74
2021/06/26 01:14:48;;;;;;;;;2.00;1.00;;;;;27.10;43.43;101568.09;5081265;28;45165;-74
2021/06/26 01:17:13;;;;;;;;;0.75;0.75;;;;;27.04;43.17;101556.34;5081600;28;45283;-74
2021/06/26 01:19:38;;;;;;;;;1.00;1.00;;;;;26.92;43.40;101542.72;5081273;28;45379;-74
2021/06/26 01:22:06;;;;;;;;;1.00;1.00;;;;;27.04;42.96;101558.19;5080539;27;46448;-74
2021/06/26 01:24:33;;;;;;;;;2.33;1.67;;;;;27.10;43.72;101572.59;5080936;28;45316;-74
2021/06/26 01:26:59;;;;;;;;;1.25;1.25;;;;;27.07;43.69;101568.47;5079910;27;45240;-74
2021/06/26 01:29:29;;;;;;;;;3.33;1.00;;;;;27.03;43.14;101562.72;5066521;28;45511;-74
2021/06/26 01:31:54;;;;;;;;;2.67;2.67;;;;;26.96;43.36;101546.63;5060004;28;46442;-74
2021/06/26 01:34:20;;;;;;;;;1.67;1.67;;;;;27.05;43.50;101563.34;5060262;28;45319;-74
2021/06/26 01:36:45;;;;;;;;;3.00;1.00;;;;;27.03;43.07;101556.53;5062292;28;45341;-74
2021/06/26 01:39:11;;;;;;;;;2.00;2.00;;;;;26.92;43.32;101541.91;5060352;28;45637;-74
2021/06/26 01:41:36;;;;;;;;;1.00;1.00;;;;;26.99;43.32;101550.75;5060539;28;46288;-74
2021/06/26 01:44:02;;;;;;;;;1.00;1.00;;;;;26.92;43.34;101544.56;5060155;28;45530;-74
2021/06/26 01:46:28;;;;;;;;;1.00;1.00;;;;;27.11;43.12;101574.25;5060588;28;45360;-74
2021/06/26 01:48:53;;;;;;;;;2.00;2.00;;;;;27.05;43.09;101559.84;5060532;28;45481;-74
2021/06/26 01:51:19;;;;;;;;;1.67;1.00;;;;;27.02;42.96;101549.53;5060647;28;46073;-74
2021/06/26 01:53:44;;;;;;;;;1.25;1.00;;;;;26.95;43.37;101552.19;5059954;28;45211;-74
2021/06/26 01:56:13;;;;;;;;;3.00;2.00;;;;;26.94;43.18;101546.03;5059222;28;45301;-74
2021/06/26 01:58:38;;;;;;;;;1.00;1.00;;;;;27.02;43.32;101557.56;5065909;28;45357;-74
2021/06/26 02:01:04;;;;;;;;;2.67;2.00;;;;;27.06;43.29;101562.28;5058739;28;47107;-74
2021/06/26 02:03:29;;;;;;;;;1.00;1.00;;;;;26.94;42.96;101548.69;5060409;28;45313;-74
2021/06/26 02:05:55;;;;;;;;;1.67;1.67;;;;;27.03;42.62;101559.22;5058721;28;45310;-74
2021/06/26 02:08:20;;;;;;;;;1.33;1.33;;;;;26.94;43.18;101542.53;5059912;27;45556;-74
2021/06/26 02:10:46;;;;;;;;;1.33;1.33;;;;;26.92;43.16;101541.91;5063390;28;46433;-74
2021/06/26 02:13:11;;;;;;;;;3.67;0.00;;;;;26.99;43.00;101556.09;5079145;28;45313;-74
2021/06/26 02:15:36;;;;;;;;;2.00;0.67;;;;;26.94;43.00;101547.84;5063198;28;45311;-74
2021/06/26 02:18:02;;;;;;;;;3.67;2.00;;;;;27.02;43.06;101561.06;5060035;28;45490;-74
2021/06/26 02:20:27;;;;;;;;;0.33;0.33;;;;;26.92;42.97;101539.22;5059951;28;45520;-74
2021/06/26 02:22:53;;;;;;;;;3.33;2.00;;;;;27.06;42.89;101562.28;5059905;28;45327;-74
2021/06/26 02:25:19;;;;;;;;;4.00;2.00;;;;;27.06;43.09;101558.81;5075772;28;45295;-74
2021/06/26 02:27:45;;;;;;;;;2.33;2.33;;;;;27.04;43.12;101564.34;5059628;28;45489;-74
2021/06/26 02:30:11;;;;;;;;;3.25;3.00;;;;;26.92;43.00;101540.06;5059845;28;45367;-74
2021/06/26 02:32:39;;;;;;;;;5.00;2.50;;;;;27.00;42.99;101541.75;5059815;28;45239;-74
2021/06/26 02:35:05;;;;;;;;;4.75;4.00;;;;;26.95;43.13;101542.34;5059975;28;45307;-74
2021/06/26 02:37:30;;;;;;;;;3.50;2.75;;;;;27.00;43.19;101546.25;5060804;28;45469;-74
2021/06/26 02:39:56;;;;;;;;;4.00;1.75;;;;;26.98;43.31;101549.13;5062280;28;46452;-74
2021/06/26 02:42:21;;;;;;;;;4.50;2.50;;;;;27.01;42.84;101545.25;5063409;28;45354;-74
2021/06/26 02:44:47;;;;;;;;;1.75;1.75;;;;;26.94;43.01;101535.34;5063456;28;45249;-74
2021/06/26 02:47:12;;;;;;;;;4.25;2.25;;;;;26.94;42.78;101535.34;5075072;27;45291;-74
2021/06/26 02:49:38;;;;;;;;;3.50;3.00;;;;;27.01;42.62;101542.56;5081655;28;47725;-75
2021/06/26 02:52:05;;;;;;;;;4.00;2.00;;;;;27.06;42.93;101550.81;5083508;28;45246;-75
2021/06/26 02:54:31;;;;;;;;;7.50;3.00;;;;;27.01;43.01;101547.91;5083333;28;45185;-75
2021/06/26 02:56:57;;;;;;;;;4.25;2.25;;;;;26.94;43.02;101538.00;5083411;28;45471;-75
2021/06/26 02:59:22;;;;;;;;;2.50;2.25;;;;;27.05;42.62;101549.97;5067471;27;46353;-75
2021/06/26 03:01:48;;;;;;;;;4.00;2.00;;;;;27.01;42.83;101543.38;5063162;28;45360;-75
2021/06/26 03:04:13;;;;;;;;;2.00;2.00;;;;;26.91;42.84;101522.38;5063202;28;45476;-75
2021/06/26 03:06:38;;;;;;;;;2.25;2.00;;;;;26.89;42.74;101521.75;5062737;28;45333;-74
2021/06/26 03:09:04;;;;;;;;;6.00;2.00;;;;;27.02;42.39;101533.53;5062667;28;45472;-75
2021/06/26 03:11:29;;;;;;;;;1.33;1.00;;;;;27.05;42.73;101536.63;5072336;28;45288;-75
2021/06/26 03:13:55;;;;;;;;;2.00;2.00;;;;;26.92;42.84;101523.22;5081958;28;45325;-75
2021/06/26 03:16:20;;;;;;;;;2.00;2.00;;;;;27.09;43.03;101545.06;5083687;28;45468;-74
2021/06/26 03:18:45;;;;;;;;;3.25;1.75;;;;;27.04;42.74;101542.97;5083192;28;45413;-74
2021/06/26 03:21:11;;;;;;;;;2.75;2.00;;;;;26.96;42.85;101530.63;5083147;28;45314;-75
2021/06/26 03:23:38;;;;;;;;;4.50;2.00;;;;;27.01;42.83;101534.56;5083132;28;45314;-74
2021/06/26 03:26:05;;;;;;;;;4.00;2.00;;;;;26.93;42.73;101528.34;5076621;28;45492;-74
2021/06/26 03:28:31;;;;;;;;;2.50;2.00;;;;;27.04;42.80;101544.81;5081343;28;46319;-74
2021/06/26 03:30:56;;;;;;;;;1.50;1.50;;;;;27.07;42.38;101557.78;5082789;28;45153;-74
2021/06/26 03:33:22;;;;;;;;;3.00;1.33;;;;;27.04;42.95;101551.00;5083086;28;45262;-74
2021/06/26 03:35:47;;;;;;;;;2.00;2.00;;;;;27.03;42.78;101548.53;5072493;28;45503;-74
2021/06/26 03:38:12;;;;;;;;;1.00;1.00;;;;;26.99;42.79;101541.91;5063622;28;46478;-74
2021/06/26 03:40:38;;;;;;;;;5.25;3.00;;;;;27.00;42.54;101540.91;5062689;28;45259;-74
2021/06/26 03:43:03;;;;;;;;;2.67;1.33;;;;;26.93;42.75;101536.34;5062328;28;45469;-74
2021/06/26 03:45:29;;;;;;;;;1.00;1.00;;;;;27.04;42.91;101551.00;5062635;28;45311;-74
2021/06/26 03:47:54;;;;;;;;;2.00;1.00;;;;;27.02;42.63;101549.53;5062158;28;45247;-74
2021/06/26 03:50:20;;;;;;;;;1.75;1.75;;;;;27.01;42.69;101551.38;5061760;28;45290;-74
2021/06/26 03:52:45;;;;;;;;;1.67;1.00;;;;;26.93;42.83;101536.34;5062226;28;45344;-74
2021/06/26 03:55:11;;;;;;;;;1.50;1.50;;;;;26.95;42.80;101550.34;5062325;28;45391;-74
2021/06/26 03:57:36;;;;;;;;;2.50;1.50;;;;;26.96;42.69;101551.97;5067696;28;46286;-74
2021/06/26 04:00:04;;;;;;;;;2.33;0.67;;;;;26.89;42.64;101536.94;5062240;28;45348;-74
2021/06/26 04:02:30;;;;;;;;;3.00;3.00;;;;;26.90;42.31;101533.25;5062349;27;45271;-74
2021/06/26 04:04:55;;;;;;;;;1.50;1.25;;;;;27.01;42.49;101551.38;5061014;28;45415;-74
2021/06/26 04:07:20;;;;;;;;;1.00;1.00;;;;;26.95;42.43;101536.16;5061905;28;45465;-74
2021/06/26 04:09:46;;;;;;;;;2.00;2.00;;;;;26.87;43.04;101529.13;5061939;28;45228;-74
2021/06/26 04:12:11;;;;;;;;;2.50;2.50;;;;;26.93;42.25;101533.69;5077231;28;45165;-74
2021/06/26 04:14:37;;;;;;;;;1.00;1.00;;;;;26.99;42.65;101542.75;5082478;28;45169;-74
2021/06/26 04:17:02;;;;;;;;;1.00;1.00;;;;;26.85;42.65;101517.84;5082082;28;46190;-74
2021/06/26 04:19:28;;;;;;;;;1.75;1.75;;;;;26.98;42.29;101532.28;5082519;28;45271;-74
2021/06/26 04:21:53;;;;;;;;;1.67;1.00;;;;;26.90;42.55;101530.59;5082254;28;45389;-74
2021/06/26 04:24:19;;;;;;;;;1.00;1.00;;;;;26.95;42.64;101542.34;5082173;28;45309;-74
2021/06/26 04:26:44;;;;;;;;;1.50;1.50;;;;;26.91;42.69;101535.72;5078042;28;46495;-74
2021/06/26 04:29:10;;;;;;;;;1.67;1.67;;;;;27.00;42.50;101544.41;5061684;28;45374;-74
2021/06/26 04:31:35;;;;;;;;;2.00;1.00;;;;;26.92;42.65;101542.72;5061873;28;45342;-74
2021/06/26 04:34:00;;;;;;;;;2.00;1.00;;;;;26.91;42.41;101542.91;5061469;28;45378;-74
2021/06/26 04:36:26;;;;;;;;;1.00;1.00;;;;;26.90;42.54;101538.59;5061959;28;45400;-74
2021/06/26 04:38:51;;;;;;;;;2.00;2.00;;;;;26.95;42.74;101555.69;5061587;28;45327;-74
2021/06/26 04:41:16;;;;;;;;;3.00;3.00;;;;;26.92;42.46;101545.41;5061775;28;45311;-74
2021/06/26 04:43:42;;;;;;;;;2.00;1.00;;;;;26.88;42.57;101543.31;5061438;28;45580;-75
2021/06/26 04:46:09;;;;;;;;;1.00;1.00;;;;;26.98;42.08;101553.63;5060002;28;47668;-74
2021/06/26 04:48:36;;;;;;;;;0.33;0.33;;;;;26.92;42.59;101550.72;5061462;28;45169;-73
2021/06/26 04:51:01;;;;;;;;;2.00;2.00;;;;;26.95;42.91;101552.19;5061725;28;45227;-73
2021/06/26 04:53:26;;;;;;;;;1.75;1.00;;;;;27.00;42.58;101570.28;5061273;28;45201;-74
2021/06/26 04:55:52;;;;;;;;;1.00;1.00;;;;;26.81;42.62;101525.41;5061278;28;45401;-73
2021/06/26 04:58:21;;;;;;;;;1.33;1.33;;;;;26.99;42.54;101557.94;5065923;28;45385;-74
2021/06/26 05:00:50;;;;;;;;;2.00;1.00;;;;;26.92;42.40;101561.41;5061273;28;45244;-74
2021/06/26 05:03:19;;;;;;;;;1.67;1.67;;;;;26.98;42.73;101564.31;5059821;28;45267;-74
2021/06/26 05:05:45;;;;;;;;;0.33;0.33;;;;;26.84;42.22;101541.03;5060925;28;45497;-74
2021/06/26 05:08:11;;;;;;;;;2.00;2.00;;;;;26.86;42.12;101548.84;5060874;28;45368;-74
2021/06/26 05:10:37;;;;;;;;;1.00;1.00;;;;;26.86;42.64;101559.53;5063048;28;45312;-74
2021/06/26 05:13:04;;;;;;;;;2.25;2.25;;;;;26.95;42.59;101571.72;5081392;28;45392;-73
2021/06/26 05:15:29;;;;;;;;;1.00;1.00;;;;;26.84;42.59;101554.38;5081070;28;45538;-73
2021/06/26 05:17:54;;;;;;;;;4.00;2.00;;;;;26.83;42.68;101549.22;5081309;28;45278;-74
2021/06/26 05:20:20;;;;;;;;;3.00;1.00;;;;;26.94;42.61;101570.06;5081304;28;45471;-74
2021/06/26 05:22:45;;;;;;;;;1.00;1.00;;;;;26.89;42.54;101564.47;5081195;28;45171;-74
2021/06/26 05:25:11;;;;;;;;;2.00;2.00;;;;;26.82;42.38;101553.75;5081097;28;46488;-74
2021/06/26 05:27:36;;;;;;;;;1.00;1.00;;;;;26.93;42.45;101564.91;5079769;28;45313;-74
2021/06/26 05:30:03;;;;;;;;;2.00;2.00;;;;;26.93;42.80;101564.91;5081376;28;45215;-73
2021/06/26 05:32:28;;;;;;;;;0.00;0.00;;;;;26.94;42.50;101562.03;5076425;28;45304;-74
2021/06/26 05:34:54;;;;;;;;;0.00;0.00;;;;;26.95;42.35;101563.69;5060439;28;45338;-74
2021/06/26 05:37:19;;;;;;;;;1.25;1.00;;;;;26.82;42.35;101544.94;5062968;28;45381;-75
2021/06/26 05:39:44;;;;;;;;;2.50;1.00;;;;;26.91;42.51;101567.75;5060575;28;45372;-74
2021/06/26 05:42:10;;;;;;;;;1.00;1.00;;;;;26.92;42.47;101557.91;5060218;28;45363;-74
2021/06/26 05:44:35;;;;;;;;;2.00;2.00;;;;;26.90;42.48;101554.63;5060435;28;46645;-76
2021/06/26 05:47:01;;;;;;;;;0.00;0.00;;;;;26.74;42.67;101541.41;5060192;28;45392;-75
2021/06/26 05:49:26;;;;;;;;;1.33;1.33;;;;;26.76;42.34;101541.19;5060701;28;45377;-74
2021/06/26 05:51:51;;;;;;;;;1.00;1.00;;;;;26.91;42.40;101566.94;5060344;28;45307;-75
2021/06/26 05:54:17;;;;;;;;;3.00;1.00;;;;;26.93;42.58;101575.59;5059458;28;45374;-75
2021/06/26 05:56:42;;;;;;;;;1.00;1.00;;;;;26.77;42.44;101556.19;5060367;28;45327;-75
2021/06/26 05:59:08;;;;;;;;;0.50;0.50;;;;;26.81;42.65;101569.97;5067596;28;45227;-75
2021/06/26 06:01:33;;;;;;;;;2.00;1.67;;;;;26.84;42.66;101575.75;5059022;28;45315;-75
2021/06/26 06:03:58;;;;;;;;;1.00;1.00;;;;;26.79;42.21;101567.50;5060400;28;45251;-75
2021/06/26 06:06:24;;;;;;;;;1.00;1.00;;;;;26.73;42.42;101558.41;5058855;28;45235;-76
2021/06/26 06:08:50;;;;;;;;;2.50;0.75;;;;;26.77;42.50;101558.88;5060114;28;45215;-75
2021/06/26 06:11:15;;;;;;;;;0.33;0.33;;;;;26.87;42.14;101574.53;5066149;28;45424;-75
2021/06/26 06:13:41;;;;;;;;;1.67;1.67;;;;;26.81;42.16;101576.13;5083719;27;47196;-76
2021/06/26 06:16:06;;;;;;;;;2.00;2.00;;;;;26.88;42.60;101586.03;5060431;28;45321;-75
2021/06/26 06:18:32;;;;;;;;;1.67;1.00;;;;;26.90;42.17;101592.00;5060367;28;45336;-76
2021/06/26 06:20:57;;;;;;;;;1.67;0.33;;;;;26.85;42.67;101587.25;5060141;28;45452;-75
2021/06/26 06:23:22;;;;;;;;;1.75;1.75;;;;;26.83;42.63;101582.09;5060072;28;46445;-76
2021/06/26 06:25:48;;;;;;;;;1.25;1.25;;;;;26.82;42.47;101582.28;5066783;28;45148;-76
2021/06/26 06:28:13;;;;;;;;;1.00;1.00;;;;;26.80;42.15;101579.00;5080447;28;45804;-76
2021/06/26 06:30:39;;;;;;;;;3.75;2.25;;;;;26.83;42.09;101586.59;5080223;28;45455;-75
2021/06/26 06:33:06;;;;;;;;;3.50;0.50;;;;;26.83;42.41;101578.59;5080264;28;45579;-75
2021/06/26 06:35:32;;;;;;;;;2.50;1.25;;;;;26.79;42.62;101580.84;5080160;28;45279;-76
2021/06/26 06:37:58;;;;;;;;;1.75;1.00;;;;;26.86;42.22;101588.88;5066989;28;45354;-76
2021/06/26 06:40:23;;;;;;;;;1.00;1.00;;;;;26.72;42.34;101571.97;5060411;28;45586;-76
2021/06/26 06:42:49;;;;;;;;;2.00;2.00;;;;;26.90;42.63;101594.66;5078785;28;47198;-76
2021/06/26 06:45:15;;;;;;;;;0.75;0.75;;;;;26.90;42.37;101586.66;5079480;28;45270;-75
2021/06/26 06:47:41;;;;;;;;;0.50;0.50;;;;;26.86;42.29;101575.53;5079915;28;45418;-75
2021/06/26 06:50:09;;;;;;;;;0.25;0.25;;;;;26.87;42.04;101577.19;5080062;28;45261;-75
2021/06/26 06:52:34;;;;;;;;;1.25;1.25;;;;;26.79;42.05;101562.16;5079683;28;46736;-75
2021/06/26 06:55:01;;;;;;;;;1.00;1.00;;;;;26.82;42.49;101566.28;5080534;28;45286;-74
2021/06/26 06:57:26;;;;;;;;;1.75;1.75;;;;;26.88;42.34;101583.38;5080821;28;45306;-75
2021/06/26 06:59:53;;;;;;;;;3.00;1.50;;;;;26.79;42.12;101559.50;5060056;27;45328;-75
2021/06/26 07:02:19;;;;;;;;;1.00;1.00;;;;;26.83;42.18;101567.91;5059703;28;46684;-75
2021/06/26 07:04:45;;;;;;;;;1.67;0.00;;;;;26.91;42.33;101583.78;5058867;28;45231;-74
2021/06/26 07:07:10;;;;;;;;;1.75;1.75;;;;;26.79;42.26;101561.31;5058122;28;45268;-75
2021/06/26 07:09:35;;;;;;;;;0.25;0.00;;;;;26.73;42.52;101558.41;5059228;28;45232;-75
2021/06/26 07:12:01;;;;;;;;;3.00;1.00;;;;;26.89;42.16;101580.50;5072989;28;45237;-75
2021/06/26 07:14:27;;;;;;;;;1.75;1.00;;;;;26.90;42.25;101575.97;5059460;28;45324;-75
2021/06/26 07:16:52;;;;;;;;;1.50;1.50;;;;;26.84;42.20;101567.72;5059602;28;45402;-75
2021/06/26 07:19:18;;;;;;;;;0.50;0.50;;;;;26.83;42.12;101568.75;5066359;28;45167;-75
2021/06/26 07:21:44;;;;;;;;;2.00;2.00;;;;;26.83;42.24;101574.09;5079449;28;46485;-75
2021/06/26 07:24:10;;;;;;;;;0.00;0.00;;;;;26.84;42.27;101581.09;5079500;28;45323;-75
2021/06/26 07:26:36;;;;;;;;;0.33;0.33;;;;;26.82;42.47;101574.28;5081883;27;45350;-75
2021/06/26 07:29:02;;;;;;;;;2.00;2.00;;;;;26.82;42.32;101582.28;5082838;28;45328;-75
2021/06/26 07:31:27;;;;;;;;;1.00;1.00;;;;;26.83;42.45;101579.41;5082797;27;45404;-75
2021/06/26 07:33:52;;;;;;;;;1.00;1.00;;;;;26.82;42.24;101575.13;5083068;28;45299;-75
2021/06/26 07:36:18;;;;;;;;;0.50;0.50;;;;;26.74;42.17;101564.59;5083015;28;45534;-75
2021/06/26 07:38:44;;;;;;;;;0.00;0.00;;;;;26.73;42.28;101561.09;5061131;28;45303;-75
2021/06/26 07:41:09;;;;;;;;;2.67;1.00;;;;;26.79;42.27;101567.50;5062460;28;45469;-75
2021/06/26 07:43:35;;;;;;;;;1.00;1.00;;;;;26.72;42.28;101551.44;5064306;28;45247;-74
2021/06/26 07:46:01;;;;;;;;;1.00;1.00;;;;;26.75;42.70;101568.91;5062627;28;45292;-75
2021/06/26 07:48:28;;;;;;;;;1.00;1.00;;;;;26.75;42.36;101566.25;5062326;28;45494;-75
2021/06/26 07:50:53;;;;;;;;;1.50;1.00;;;;;26.73;42.72;101557.59;5060988;28;46589;-75
2021/06/26 07:53:19;;;;;;;;;1.00;1.00;;;;;26.81;42.52;101567.28;5061998;28;45217;-75
2021/06/26 07:55:51;;;;;;;;;1.50;1.50;;;;;26.88;42.29;101583.38;5062629;28;45518;-74
2021/06/26 07:58:24;;;;;;;;;2.00;0.50;;;;;26.71;42.59;101552.47;5067378;28;45212;-74
2021/06/26 08:00:51;;;;;;;;;1.00;0.67;;;;;26.76;42.38;101561.72;5062090;28;46329;-75
2021/06/26 08:03:18;;;;;;;;;1.00;1.00;;;;;26.75;42.38;101568.91;5062189;28;45188;-72
2021/06/26 08:05:44;;;;;;;;;1.00;1.00;;;;;26.81;42.47;101570.78;5073375;28;45350;-73
2021/06/26 08:08:10;;;;;;;;;1.25;1.25;;;;;26.89;42.34;101582.31;5078579;28;45533;-72
2021/06/26 08:10:35;;;;;;;;;2.00;1.00;;;;;26.78;42.41;101562.38;5078295;28;46395;-72
2021/06/26 08:13:01;;;;;;;;;0.25;0.25;;;;;26.83;42.01;101576.75;5077949;28;45298;-72
2021/06/26 08:15:26;;;;;;;;;2.25;1.75;;;;;26.74;42.07;101564.59;5079414;28;45381;-73
2021/06/26 08:17:52;;;;;;;;;2.50;1.00;;;;;26.85;42.23;101581.91;5079457;28;45467;-71
2021/06/26 08:20:17;;;;;;;;;2.00;1.00;;;;;26.77;42.79;101561.53;5076769;28;46213;-71
2021/06/26 08:22:43;;;;;;;;;0.25;0.25;;;;;26.80;41.96;101566.50;5076721;28;45305;-68
2021/06/26 08:25:09;;;;;;;;;1.00;1.00;;;;;26.81;42.36;101576.13;5068369;28;45428;-68
2021/06/26 08:27:34;;;;;;;;;3.00;3.00;;;;;26.90;42.10;101589.34;5079552;28;45338;-69
2021/06/26 08:30:00;;;;;;;;;2.00;0.75;;;;;26.73;42.25;101561.09;5065368;28;46519;-71
2021/06/26 08:32:25;;;;;;;;;1.50;1.00;;;;;26.73;42.32;101561.09;5063296;28;45285;-69
2021/06/26 08:34:51;;;;;;;;;1.67;1.00;;;;;26.80;42.25;101557.66;5061549;28;45205;-69
2021/06/26 08:37:16;;;;;;;;;2.75;1.00;;;;;27.00;42.28;101579.13;5062100;28;45280;-68
2021/06/26 08:39:41;;;;;;;;;2.75;1.75;;;;;27.03;42.38;101572.56;5062569;28;45319;-69
2021/06/26 08:42:08;;;;;;;;;1.00;1.00;;;;;27.11;42.36;101576.91;5061388;28;45267;-69
2021/06/26 08:44:33;;;;;;;;;2.00;1.00;;;;;27.08;41.73;101556.78;5061150;27;45331;-69
2021/06/26 08:46:59;;;;;;;;;0.50;0.50;;;;;27.12;41.78;101549.19;5060994;28;45371;-69
2021/06/26 08:49:25;;;;;;;;;1.33;1.00;;;;;27.27;41.95;101565.91;5059081;28;45574;-68
2021/06/26 08:51:52;;;;;;;;;1.00;1.00;;;;;27.32;42.07;101565.34;5075650;27;45487;-70
2021/06/26 08:54:18;;;;;;;;;0.50;0.50;;;;;27.39;41.15;101560.84;5066166;28;45332;-70
2021/06/26 08:56:45;;;;;;;;;1.00;1.00;;;;;27.42;41.26;101564.13;5075149;28;45277;-70
2021/06/26 08:59:11;;;;;;;;;1.00;1.00;;;;;27.45;41.21;101579.78;5064269;28;46554;-70
2021/06/26 09:01:38;;;;;;;;;2.00;1.00;;;;;27.45;41.35;101569.09;5060832;28;45365;-70
2021/06/26 09:04:05;;;;;;;;;4.00;1.00;;;;;27.46;41.85;101574.22;5059272;28;45486;-70
2021/06/26 09:06:44;;;;;;;;;0.00;0.00;;;;;27.51;41.10;101570.94;5060740;28;45458;-70
2021/06/26 09:09:10;;;;;;;;;1.00;1.00;;;;;27.35;41.61;101545.44;5060385;28;45514;-70
2021/06/26 09:11:35;;;;;;;;;0.00;0.00;;;;;27.47;41.38;101562.53;5070950;28;45393;-69
2021/06/26 09:14:00;;;;;;;;;1.00;1.00;;;;;27.50;41.50;101570.16;5081072;28;45208;-70
2021/06/26 09:16:26;;;;;;;;;0.00;0.00;;;;;27.48;42.15;101558.00;5081250;28;45211;-64
2021/06/26 09:18:51;;;;;;;;;2.00;0.50;;;;;27.36;42.20;101557.75;5079657;28;47478;-65
2021/06/26 09:21:36;;;;;;;;;1.67;1.00;;;;;27.36;41.89;101566.59;5081074;28;45212;-64
2021/06/26 09:24:05;;;;;;;;;1.00;1.00;;;;;27.31;42.25;101565.53;5080737;28;45219;-64
2021/06/26 09:26:31;;;;;;;;;0.50;0.50;;;;;27.22;42.49;101563.03;5080985;28;45410;-65
2021/06/26 09:29:10;;;;;;;;;1.00;1.00;;;;;27.20;42.14;101572.25;5080478;28;45381;-66
2021/06/26 09:31:46;;;;;;;;;1.33;1.33;;;;;27.16;42.61;101566.50;5071209;28;45335;-64
2021/06/26 09:34:12;;;;;;;;;0.67;0.67;;;;;27.18;42.25;101577.81;5067487;28;45215;-63
2021/06/26 09:36:37;;;;;;;;;2.00;0.33;;;;;26.98;42.36;101554.47;5078247;28;45224;-63
2021/06/26 09:39:07;;;;;;;;;0.33;0.33;;;;;27.13;42.72;101586.41;5074720;28;45571;-63
2021/06/26 09:41:34;;;;;;;;;1.00;1.00;;;;;27.12;42.51;101589.25;5079862;28;45317;-63
2021/06/26 09:44:13;;;;;;;;;0.00;0.00;;;;;27.11;42.59;101590.28;5067052;28;45527;-63
2021/06/26 09:46:46;;;;;;;;;1.33;1.00;;;;;27.11;42.77;101592.94;5060041;28;45302;-63
2021/06/26 09:49:12;;;;;;;;;0.75;0.75;;;;;27.10;42.97;101588.63;5059539;28;45406;-63
2021/06/26 09:51:37;;;;;;;;;1.00;1.00;;;;;26.96;42.49;101575.19;5058042;28;45391;-63
2021/06/26 09:54:05;;;;;;;;;0.67;0.67;;;;;27.05;42.78;101587.38;5057909;28;45944;-63
2021/06/26 09:56:41;;;;;;;;;2.00;2.00;;;;;27.00;43.25;101581.78;5058106;28;45412;-63
2021/06/26 09:59:08;;;;;;;;;0.00;0.00;;;;;27.06;42.72;101585.53;5064029;28;45567;-75
2021/06/26 10:01:36;;;;;;;;;1.00;1.00;;;;;27.15;42.91;101595.06;5058144;28;45453;-75
2021/06/26 10:04:03;;;;;;;;;2.00;2.00;;;;;27.14;42.77;101588.06;5074347;28;45404;-76
2021/06/26 10:06:31;;;;;;;;;1.00;1.00;;;;;27.08;42.45;101570.13;5079105;28;45488;-73
2021/06/26 10:08:59;;;;;;;;;1.00;1.00;;;;;27.09;42.46;101569.09;5093603;27;46273;-72
2021/06/26 10:11:25;;;;;;;;;1.00;1.00;;;;;27.17;42.57;101568.13;5079035;28;45254;-77
2021/06/26 10:13:51;;;;;;;;;1.00;1.00;;;;;27.14;42.47;101561.34;5079873;28;45582;-76
2021/06/26 10:16:17;;;;;;;;;3.00;2.00;;;;;27.25;42.47;101580.50;5079530;28;45334;-71
2021/06/26 10:18:43;;;;;;;;;1.00;1.00;;;;;27.25;42.62;101565.31;5080206;28;46202;-71
2021/06/26 10:21:08;;;;;;;;;1.00;1.00;;;;;27.25;42.04;101565.31;5080438;28;45172;-71
2021/06/26 10:23:35;;;;;;;;;1.00;1.00;;;;;27.16;42.21;101548.63;5068107;28;45335;-71
2021/06/26 10:26:02;;;;;;;;;2.33;1.00;;;;;27.25;42.43;101559.13;5060093;28;45474;-71
2021/06/26 10:28:28;;;;;;;;;1.00;1.00;;;;;27.32;42.58;101559.19;5041504;28;47489;-71
2021/06/26 10:30:58;;;;;;;;;1.00;1.00;;;;;27.32;42.38;101552.00;5059966;28;45348;-71
2021/06/26 10:33:26;;;;;;;;;1.00;1.00;;;;;27.24;42.34;101539.63;5059943;28;45150;-71
2021/06/26 10:35:54;;;;;;;;;2.00;2.00;;;;;27.16;42.58;101526.44;5059762;28;45311;-71
2021/06/26 10:38:20;;;;;;;;;1.00;1.00;;;;;27.31;42.12;101538.81;5060256;28;46370;-72
2021/06/26 10:40:49;;;;;;;;;0.33;0.00;;;;;27.23;42.09;101537.97;5059686;28;45411;-71
2021/06/26 10:43:20;;;;;;;;;0.67;0.67;;;;;27.33;41.98;101542.09;5059564;28;45423;-72
2021/06/26 10:45:47;;;;;;;;;1.00;1.00;;;;;27.37;42.14;101543.38;5059740;28;45238;-72
2021/06/26 10:48:21;;;;;;;;;1.00;1.00;;;;;27.37;42.20;101544.19;5059395;28;46445;-72
2021/06/26 10:50:53;;;;;;;;;2.33;1.33;;;;;27.39;42.45;101549.34;5059749;28;45272;-72
2021/06/26 10:53:30;;;;;;;;;1.00;1.00;;;;;27.20;42.28;101516.16;5059433;28;45555;-72
2021/06/26 10:56:13;;;;;;;;;0.67;0.67;;;;;27.39;42.38;101549.34;5065524;28;45349;-72
2021/06/26 10:58:41;;;;;;;;;1.00;1.00;;;;;27.36;42.13;101537.19;5079257;28;45559;-72
2021/06/26 11:01:15;;;;;;;;;1.00;1.00;;;;;27.40;41.87;101554.47;5082416;28;45359;-71
2021/06/26 11:03:42;;;;;;;;;1.33;1.33;;;;;27.41;42.24;101552.63;5083166;28;45223;-71
2021/06/26 11:06:27;;;;;;;;;1.00;1.00;;;;;27.42;42.08;101554.28;5081873;28;45628;-72
2021/06/26 11:09:11;;;;;;;;;1.00;1.00;;;;;27.40;41.90;101548.31;5081481;28;47411;-71
2021/06/26 11:11:41;;;;;;;;;0.67;0.67;;;;;27.36;41.82;101553.22;5083394;27;45469;-71
2021/06/26 11:14:11;;;;;;;;;1.00;1.00;;;;;27.43;42.21;101563.13;5083093;28;45313;-72
2021/06/26 11:16:38;;;;;;;;;2.00;2.00;;;;;27.43;42.29;101563.13;5083363;28;45457;-72
2021/06/26 11:19:04;;;;;;;;;1.00;1.00;;;;;27.41;41.76;101574.00;5082883;28;45407;-71
2021/06/26 11:21:41;;;;;;;;;0.00;0.00;;;;;27.39;41.84;101560.84;5083340;28;45419;-71